Patrick Air Force Base
KCOF : now visible

Airfield :











YOU CAN JOIN US ON...

 
LOGIN :

Register | Disclaimer

   EN    FR    IT 

 









Legend :    VFR   Marginal VFR   IFR   Intensive IFR   Very Intensive IFR
Visi :
Ceiling :
>= 8 km
>= 3000ft
5 to 8 km
1000 to 3000 ft
1500m to 5 km
500 to 1000 ft
800 to 1500m
200 to 500 ft
< 800m
< 200 ft
Symbols :   Thunderstorms  Fog  Heavy snow  Heavy precipitations  Wind > 20 kt






- Airport Elevation : 8 ft


KCOF - Patrick Air Force Base

CURRENT METAR :
  • 150656Z AUTO 33012KT 10SM CLR 15/13 A3001 RMK AO2 SLP167 T01520130 $

EXPIRED METARs :
  • 150556Z AUTO 33014KT 10SM CLR 16/12 A3001 RMK AO2 SLP167 T01560118 10200 20156 52006 $
  • 150456Z AUTO 32011KT 10SM CLR 16/12 A3000 RMK AO2 SLP163 T01620122 402660162 $

TAF AMD TAF KCOF
Valid from the 14 at 20:00 until the 16 at 01:00 UTC


142022Z 1420/1601 30012G18KT 9999 SCT040 QNH2990INS
BECMG 1507/1508 33008KT 9999 SKC QNH2990INS
BECMG 1518/1519 06008KT 9999 SKC QNH3001INS TX22/1516Z TN16/1512Z LAST NO AMDS AFT 1422 NEXT 1511



MET'MAP, your aeronautical weather chart ! - Copyright ORBIFLY December 2007 - Disclaimer

ORBIFLY MET'MAP TEAM :

Programming & Development : Alexandra Zaïnal
Concept & original design : Baudouin d'Aumeries
Assistance for programming : Marc-Olivier Méhu
Technical & hardware support : Manuel Goepfert

Contact : metmap@orbifly.com




SOURCES & CREDITS :

   NOAA       Earth
Advisory